Time;durP1;ratioP1;P1;durP2;ratioP2;P2;SDS_P1;SDS_P2;PMS_P1;PMS_P2;Temp;Humidity;BMP_temperature;BMP_pressure;BME280_temperature;BME280_humidity;BME280_pressure;Samples;Min_cycle;Max_cycle;Signal;HPM_P1;HPM_P2
2022/11/06 00:01:27;;;;;;;4.00;2.50;;;;;;;11.00;100.00;98806.97;5112894;27;20201;-61
2022/11/06 00:03:54;;;;;;;2.23;2.03;;;;;;;10.93;100.00;98810.13;5112651;28;20204;-61
2022/11/06 00:09:09;;;;;;;3.17;2.40;;;;;;;10.95;100.00;98803.97;5113000;28;20216;-57
2022/11/06 00:11:36;;;;;;;2.03;1.60;;;;;;;10.90;100.00;98811.16;5112897;28;20631;-57
2022/11/06 00:14:04;;;;;;;2.67;2.40;;;;;;;10.86;100.00;98820.84;5112795;28;20221;-57
2022/11/06 00:16:30;;;;;;;3.07;2.60;;;;;;;10.83;100.00;98822.81;5112766;28;20576;-61
2022/11/06 00:19:00;;;;;;;1.70;1.37;;;;;;;10.83;100.00;98817.72;5112655;28;20215;-57
2022/11/06 00:21:29;;;;;;;4.63;2.67;;;;;;;10.84;100.00;98824.44;5112525;28;20677;-61
2022/11/06 00:23:57;;;;;;;1.43;1.20;;;;;;;10.81;100.00;98819.56;5112569;28;20305;-61
2022/11/06 00:26:25;;;;;;;2.93;1.67;;;;;;;10.77;100.00;98818.19;5112646;28;20692;-61
2022/11/06 00:28:53;;;;;;;1.63;1.53;;;;;;;10.77;100.00;98818.19;5112402;28;20802;-61
2022/11/06 00:31:22;;;;;;;2.10;1.90;;;;;;;10.74;100.00;98820.97;5112352;28;20205;-61
2022/11/06 00:33:49;;;;;;;3.03;1.80;;;;;;;10.81;100.00;98819.56;5112259;28;20665;-61
2022/11/06 00:36:18;;;;;;;3.13;2.67;;;;;;;10.92;100.00;98827.22;5112244;28;20213;-57
2022/11/06 00:38:46;;;;;;;2.57;2.17;;;;;;;10.86;100.00;98827.69;5112191;28;20738;-57
2022/11/06 00:41:16;;;;;;;3.33;1.90;;;;;;;10.84;100.00;98825.25;5112178;28;20198;-61
2022/11/06 00:43:43;;;;;;;3.33;2.27;;;;;;;10.79;100.00;98822.25;5112000;28;20315;-57
2022/11/06 00:46:11;;;;;;;2.47;1.90;;;;;;;10.76;100.00;98821.66;5112127;28;20201;-57
2022/11/06 00:48:39;;;;;;;2.40;2.10;;;;;;;10.83;100.00;98822.81;5111935;28;20194;-61
2022/11/06 00:51:11;;;;;;;2.37;2.17;;;;;;;10.79;100.00;98826.53;5112561;28;20622;-61
2022/11/06 00:53:39;;;;;;;1.27;1.03;;;;;;;10.78;100.00;98832.59;5112132;28;20251;-57
2022/11/06 00:56:09;;;;;;;1.70;1.20;;;;;;;10.82;100.00;98831.41;5111851;28;20189;-61
2022/11/06 00:58:37;;;;;;;3.97;2.10;;;;;;;10.79;100.00;98831.66;5112277;28;20201;-58
2022/11/06 01:01:08;;;;;;;2.07;1.63;;;;;;;10.82;100.00;98826.28;5111765;28;20217;-61
2022/11/06 01:03:35;;;;;;;2.37;2.00;;;;;;;10.85;100.00;98831.19;5111817;28;20643;-61
2022/11/06 01:06:07;;;;;;;1.53;1.43;;;;;;;10.84;100.00;98835.47;5111426;28;20221;-61
2022/11/06 01:08:34;;;;;;;1.73;1.63;;;;;;;10.90;100.00;98839.31;5111007;28;20246;-61
2022/11/06 01:11:08;;;;;;;1.77;1.30;;;;;;;10.87;100.00;98834.44;5111559;28;20832;-57
2022/11/06 01:13:35;;;;;;;1.60;1.50;;;;;;;10.88;100.00;98831.75;5111696;28;20197;-61
2022/11/06 01:16:04;;;;;;;4.17;2.47;;;;;;;10.86;100.00;98832.81;5111478;28;20509;-57
2022/11/06 01:18:31;;;;;;;1.50;1.40;;;;;;;10.88;100.00;98836.06;5111341;28;20201;-61
2022/11/06 01:20:58;;;;;;;2.77;2.57;;;;;;;10.82;100.00;98841.63;5111203;28;20221;-57
2022/11/06 01:23:24;;;;;;;4.17;2.10;;;;;;;10.87;100.00;98844.66;5111258;28;20220;-61
2022/11/06 01:25:58;;;;;;;3.17;2.87;;;;;;;10.84;100.00;98837.22;5111415;28;20232;-57
2022/11/06 01:28:27;;;;;;;4.43;2.37;;;;;;;10.89;100.00;98842.81;5111270;28;20565;-61
2022/11/06 01:30:54;;;;;;;3.77;2.23;;;;;;;10.93;100.00;98844.19;5111323;28;20228;-57
2022/11/06 01:33:21;;;;;;;1.40;1.30;;;;;;;10.90;100.00;98843.63;5111248;27;20205;-57
2022/11/06 01:35:50;;;;;;;4.80;2.07;;;;;;;10.89;100.00;98832.56;5110943;28;20217;-61
2022/11/06 01:38:18;;;;;;;1.57;1.47;;;;;;;10.91;100.00;98846.06;5111108;28;20246;-57
2022/11/06 01:40:46;;;;;;;2.03;1.83;;;;;;;11.00;100.00;98839.41;5110807;28;20221;-57
2022/11/06 01:43:16;;;;;;;2.13;1.93;;;;;;;11.01;100.00;98836.72;5110862;28;20225;-57
2022/11/06 01:45:47;;;;;;;3.17;2.07;;;;;;;11.02;100.00;98835.78;5110794;27;20225;-58
2022/11/06 01:48:15;;;;;;;2.87;2.43;;;;;;;11.00;100.00;98835.13;5110800;28;20194;-58
2022/11/06 01:50:45;;;;;;;2.03;1.83;;;;;;;11.04;100.00;98830.56;5110872;28;20585;-61
2022/11/06 01:53:13;;;;;;;2.90;1.93;;;;;;;11.15;100.00;98832.28;5110806;28;20201;-61
2022/11/06 01:55:43;;;;;;;2.60;2.37;;;;;;;11.10;100.00;98835.19;5110577;28;20228;-61
2022/11/06 01:58:14;;;;;;;2.30;1.90;;;;;;;11.07;100.00;98826.00;5110726;28;20208;-61
2022/11/06 02:00:42;;;;;;;2.13;1.60;;;;;;;11.04;100.00;98841.59;5110589;28;20221;-61
2022/11/06 02:03:11;;;;;;;1.83;1.73;;;;;;;11.16;100.00;98844.13;5110740;28;20228;-61
2022/11/06 02:05:38;;;;;;;4.87;1.60;;;;;;;11.07;100.00;98846.47;5110496;28;20791;-57
2022/11/06 02:08:06;;;;;;;3.50;2.67;;;;;;;11.08;100.00;98845.56;5110216;28;20673;-61
2022/11/06 02:10:34;;;;;;;1.83;1.73;;;;;;;11.19;100.00;98849.00;5110153;28;20221;-61
2022/11/06 02:13:16;;;;;;;1.50;1.40;;;;;;;11.17;100.00;98846.59;5110520;28;20205;-57
2022/11/06 02:15:49;;;;;;;3.03;2.73;;;;;;;11.17;100.00;98856.00;5109989;28;20308;-57
2022/11/06 02:18:30;;;;;;;1.97;1.60;;;;;;;11.10;100.00;98850.56;5110177;27;20194;-61
2022/11/06 02:21:34;;;;;;;2.50;2.10;;;;;;;11.10;100.00;98848.78;5109994;28;20221;-57
2022/11/06 02:24:19;;;;;;;2.63;1.47;;;;;;;11.16;100.00;98857.75;5087265;28;20225;-57
2022/11/06 02:26:56;;;;;;;1.63;1.53;;;;;;;11.26;100.00;98857.84;5110122;28;20197;-57
2022/11/06 02:29:31;;;;;;;2.47;2.27;;;;;;;11.16;100.00;98864.59;5109744;28;20312;-57
2022/11/06 02:32:03;;;;;;;3.47;2.03;;;;;;;11.08;100.00;98863.47;5109887;28;20192;-60
2022/11/06 02:34:30;;;;;;;3.37;2.70;;;;;;;11.14;100.00;98861.34;5110343;28;20254;-57
2022/11/06 02:37:00;;;;;;;6.33;2.70;;;;;;;11.14;100.00;98866.47;5110433;28;20262;-61
2022/11/06 02:39:29;;;;;;;2.13;1.93;;;;;;;11.12;100.00;98873.47;5110204;28;20700;-57
2022/11/06 02:42:00;;;;;;;3.13;2.60;;;;;;;11.10;100.00;98871.81;5110130;28;20224;-57
2022/11/06 02:44:29;;;;;;;3.93;1.83;;;;;;;11.09;100.00;98870.22;5110171;28;20240;-61
2022/11/06 02:46:59;;;;;;;2.20;2.00;;;;;;;11.12;100.00;98865.78;5109693;28;20207;-61
2022/11/06 02:49:30;;;;;;;1.83;1.73;;;;;;;11.13;100.00;98875.09;5109950;28;20229;-61
2022/11/06 02:52:03;;;;;;;2.23;2.07;;;;;;;11.15;100.00;98868.13;5110144;28;20189;-61
2022/11/06 02:54:34;;;;;;;6.53;3.07;;;;;;;11.19;100.00;98867.75;5109848;28;20225;-57
2022/11/06 02:57:08;;;;;;;3.37;3.07;;;;;;;11.19;100.00;98869.50;5109914;28;20196;-61
2022/11/06 02:59:43;;;;;;;2.67;2.13;;;;;;;11.20;100.00;98871.94;5109704;28;20255;-62
2022/11/06 03:02:16;;;;;;;2.63;1.90;;;;;;;11.22;100.00;98864.13;5109822;28;20197;-57
2022/11/06 03:04:48;;;;;;;1.97;1.67;;;;;;;11.26;100.00;98868.09;5109506;28;20247;-57
2022/11/06 03:07:19;;;;;;;1.23;1.23;;;;;;;11.18;100.00;98867.88;5109648;28;20204;-61
2022/11/06 03:09:48;;;;;;;5.07;2.70;;;;;;;11.22;100.00;98864.13;5109603;28;20221;-61
2022/11/06 03:12:24;;;;;;;4.37;3.17;;;;;;;11.24;100.00;98873.31;5109753;28;20197;-57
2022/11/06 03:14:57;;;;;;;3.37;2.93;;;;;;;11.24;100.00;98873.31;5110022;28;20212;-58
2022/11/06 03:17:36;;;;;;;2.20;2.00;;;;;;;11.22;100.00;98876.91;5109746;28;20193;-58
2022/11/06 03:20:11;;;;;;;2.60;2.40;;;;;;;11.15;100.00;98876.59;5109840;28;20224;-61
2022/11/06 03:22:44;;;;;;;2.57;2.13;;;;;;;11.17;100.00;98882.41;5109479;28;20189;-61
2022/11/06 03:25:18;;;;;;;3.87;1.80;;;;;;;11.20;100.00;98884.72;5109644;28;20225;-57
2022/11/06 03:27:54;;;;;;;1.53;1.43;;;;;;;11.19;100.00;98879.72;5109399;28;20261;-61
2022/11/06 03:30:22;;;;;;;2.40;1.93;;;;;;;11.18;100.00;98888.34;5109961;28;20221;-57
2022/11/06 03:32:53;;;;;;;3.63;2.17;;;;;;;11.17;100.00;98899.50;5113362;28;20209;-57
2022/11/06 03:35:25;;;;;;;5.40;2.53;;;;;;;11.26;100.00;98901.34;5113559;28;20221;-61
2022/11/06 03:37:57;;;;;;;2.23;2.03;;;;;;;11.10;100.00;98899.16;5113159;28;20201;-56
2022/11/06 03:40:28;;;;;;;3.77;2.90;;;;;;;11.14;100.00;98897.16;5113702;28;20312;-57
2022/11/06 03:43:01;;;;;;;3.43;1.77;;;;;;;11.15;100.00;98893.69;5113175;28;20723;-61
2022/11/06 03:45:31;;;;;;;1.83;1.70;;;;;;;11.13;100.00;98901.47;5113246;28;20220;-57
2022/11/06 03:48:04;;;;;;;3.30;2.27;;;;;;;11.24;100.00;98903.22;5113044;28;20201;-61
2022/11/06 03:50:34;;;;;;;2.93;2.43;;;;;;;11.17;100.00;98904.59;5112907;28;20345;-57
2022/11/06 03:53:15;;;;;;;4.57;2.97;;;;;;;11.26;100.00;98901.34;5113171;27;20205;-61
2022/11/06 03:55:46;;;;;;;3.20;2.00;;;;;;;11.17;100.00;98902.06;5112812;28;20221;-61
2022/11/06 03:58:19;;;;;;;1.37;1.27;;;;;;;11.23;100.00;98901.59;5112742;28;20288;-57
2022/11/06 04:00:47;;;;;;;2.73;2.20;;;;;;;11.21;100.00;98909.38;5112860;28;20217;-57
2022/11/06 04:03:22;;;;;;;3.20;2.20;;;;;;;11.24;100.00;98909.13;5112630;28;20221;-57
2022/11/06 04:05:53;;;;;;;2.67;2.47;;;;;;;11.20;100.00;98912.88;5112461;28;20235;-57
2022/11/06 04:14:00;;;;;;;2.37;1.87;;;;;;;11.14;100.00;98931.28;5112540;28;20315;-57
2022/11/06 04:16:32;;;;;;;2.87;2.30;;;;;;;11.22;100.00;98930.66;5112705;28;20356;-57
2022/11/06 04:18:59;;;;;;;2.80;2.17;;;;;;;11.20;100.00;98927.41;5112413;28;20227;-57
2022/11/06 04:21:39;;;;;;;4.83;2.07;;;;;;;11.25;100.00;98925.31;5112653;28;20258;-61
2022/11/06 04:27:17;;;;;;;5.13;3.03;;;;;;;11.20;100.00;98937.63;5112450;28;20229;-61
2022/11/06 04:30:10;;;;;;;3.27;3.07;;;;;;;11.16;100.00;98936.25;5112083;27;20217;-57
2022/11/06 04:32:49;;;;;;;5.10;2.87;;;;;;;11.18;100.00;98934.41;5109679;28;20205;-61
2022/11/06 04:35:27;;;;;;;8.63;3.37;;;;;;;11.19;100.00;98936.03;5112507;28;20220;-61
2022/11/06 04:38:02;;;;;;;2.33;2.13;;;;;;;11.09;100.00;98936.72;5111997;28;20193;-61
2022/11/06 04:40:38;;;;;;;2.77;1.93;;;;;;;11.14;100.00;98941.50;5112215;28;20224;-58
2022/11/06 04:43:13;;;;;;;2.40;2.20;;;;;;;11.16;100.00;98936.25;5110975;28;20193;-57
2022/11/06 04:45:45;;;;;;;2.80;2.53;;;;;;;11.15;100.00;98932.88;5112169;28;21006;-57
2022/11/06 04:48:13;;;;;;;3.60;3.30;;;;;;;11.20;100.00;98938.47;5111826;28;20719;-61
2022/11/06 04:50:45;;;;;;;3.53;2.43;;;;;;;11.09;100.00;98929.06;5111707;28;20221;-57
2022/11/06 04:53:12;;;;;;;2.27;1.83;;;;;;;11.10;100.00;98932.41;5112016;28;20205;-61
2022/11/06 04:55:46;;;;;;;4.10;1.97;;;;;;;11.13;100.00;98936.50;5111643;28;20221;-57
2022/11/06 04:58:13;;;;;;;2.40;1.90;;;;;;;11.19;100.00;98930.91;5111562;28;20198;-61
2022/11/06 05:00:46;;;;;;;3.23;2.97;;;;;;;11.22;100.00;98940.91;5111869;28;20228;-57
2022/11/06 05:03:13;;;;;;;2.87;2.43;;;;;;;11.22;100.00;98946.00;5111527;28;20228;-61
2022/11/06 05:05:40;;;;;;;2.37;2.17;;;;;;;11.23;100.00;98942.53;5111357;27;20832;-61
2022/11/06 05:08:12;;;;;;;4.60;2.77;;;;;;;11.16;100.00;98947.31;5111349;28;20689;-61
2022/11/06 05:10:39;;;;;;;2.27;1.77;;;;;;;11.22;100.00;98951.13;5111344;28;20230;-57
2022/11/06 05:13:07;;;;;;;4.20;3.00;;;;;;;11.21;100.00;98950.31;5111570;28;20201;-57
2022/11/06 05:15:34;;;;;;;3.63;2.20;;;;;;;11.22;100.00;98957.06;5111347;28;20225;-57
2022/11/06 05:18:02;;;;;;;3.37;2.53;;;;;;;11.24;100.00;98955.22;5111195;28;20213;-58
2022/11/06 05:20:29;;;;;;;3.93;2.87;;;;;;;11.22;100.00;98956.25;5111097;28;20285;-61
2022/11/06 05:22:59;;;;;;;4.17;2.97;;;;;;;11.22;100.00;98961.38;5111050;28;20206;-57
2022/11/06 05:25:27;;;;;;;4.37;2.80;;;;;;;11.21;100.00;98963.13;5111493;28;20301;-61
2022/11/06 05:27:54;;;;;;;3.57;2.47;;;;;;;11.21;100.00;98964.88;5111087;28;20205;-57
2022/11/06 05:30:21;;;;;;;3.50;2.67;;;;;;;11.19;100.00;98956.50;5110863;28;20249;-61
2022/11/06 05:32:47;;;;;;;2.87;1.50;;;;;;;11.25;100.00;98966.25;5110953;28;20687;-61
2022/11/06 05:35:16;;;;;;;3.20;2.83;;;;;;;11.22;100.00;98976.72;5110855;28;20225;-57
2022/11/06 05:37:43;;;;;;;4.40;2.83;;;;;;;11.23;100.00;98978.38;5110868;28;20198;-61
2022/11/06 05:40:11;;;;;;;3.40;2.83;;;;;;;11.20;100.00;98983.69;5110763;28;20221;-57
2022/11/06 05:42:38;;;;;;;2.60;2.40;;;;;;;11.25;100.00;98986.72;5110899;28;20200;-58
2022/11/06 05:45:06;;;;;;;3.60;2.03;;;;;;;11.16;100.00;98987.44;5110929;28;20233;-57
2022/11/06 05:47:33;;;;;;;2.90;2.27;;;;;;;11.13;100.00;98993.59;5110647;28;20205;-57
2022/11/06 05:50:00;;;;;;;2.60;2.17;;;;;;;11.23;100.00;98993.72;5110707;28;20221;-57
2022/11/06 05:52:28;;;;;;;2.27;1.97;;;;;;;11.26;100.00;98998.59;5110560;27;20287;-61
2022/11/06 05:54:55;;;;;;;4.63;3.60;;;;;;;11.23;100.00;99001.41;5110111;28;20311;-57
2022/11/06 05:57:21;;;;;;;4.37;3.37;;;;;;;11.31;100.00;99001.59;5110644;28;20196;-61
2022/11/06 05:59:48;;;;;;;4.27;1.77;;;;;;;11.32;100.00;99008.38;5110762;28;20758;-57
2022/11/06 06:02:15;;;;;;;6.33;3.87;;;;;;;11.41;100.00;99012.78;5110406;28;20212;-61
2022/11/06 06:04:42;;;;;;;7.80;2.47;;;;;;;11.35;100.00;99007.34;5110433;28;20502;-57
2022/11/06 06:07:09;;;;;;;7.30;2.63;;;;;;;11.45;100.00;99006.47;5110178;28;20193;-57
2022/11/06 06:09:37;;;;;;;3.27;2.47;;;;;;;11.54;100.00;99010.88;5110740;28;20220;-57
2022/11/06 06:12:04;;;;;;;4.40;3.17;;;;;;;11.62;100.00;99009.50;5110422;28;20204;-57
2022/11/06 06:14:31;;;;;;;9.60;4.30;;;;;;;11.60;100.00;99017.28;5110432;28;20213;-57
2022/11/06 06:16:57;;;;;;;4.30;2.70;;;;;;;11.60;100.00;99013.91;5110110;28;20394;-57
2022/11/06 06:19:24;;;;;;;3.00;2.37;;;;;;;11.67;100.00;99018.44;5110029;28;20225;-57
2022/11/06 06:21:51;;;;;;;2.87;2.57;;;;;;;11.67;100.00;99033.00;5109980;28;20208;-61
2022/11/06 06:24:18;;;;;;;4.20;3.80;;;;;;;11.82;100.00;99031.00;5110304;28;20225;-58
2022/11/06 06:26:46;;;;;;;5.73;3.20;;;;;;;11.81;100.00;99030.19;5110041;28;20216;-61
2022/11/06 06:29:13;;;;;;;2.90;2.40;;;;;;;11.86;100.00;99033.22;5110178;28;20770;-58
2022/11/06 06:31:39;;;;;;;3.77;2.60;;;;;;;11.94;100.00;99041.13;5110031;28;20282;-57
2022/11/06 06:34:06;;;;;;;3.10;2.80;;;;;;;12.06;100.00;99046.22;5110117;28;20217;-57
2022/11/06 06:36:33;;;;;;;5.37;2.60;;;;;;;11.99;100.00;99046.69;5110427;28;20197;-57
2022/11/06 06:39:00;;;;;;;2.73;2.07;;;;;;;12.15;100.00;99048.03;5109859;28;20635;-57
2022/11/06 06:41:26;;;;;;;3.23;2.23;;;;;;;12.26;100.00;99049.75;5109768;28;20201;-61
2022/11/06 06:43:55;;;;;;;2.37;2.00;;;;;;;12.40;100.00;99057.97;5109761;28;20225;-57
2022/11/06 06:46:21;;;;;;;3.97;3.10;;;;;;;12.43;100.00;99062.84;5110011;28;20246;-61
2022/11/06 06:48:48;;;;;;;4.53;2.43;;;;;;;12.68;100.00;99055.72;5109847;28;20197;-57
2022/11/06 06:51:15;;;;;;;2.67;2.33;;;;;;;12.79;100.00;99068.50;5109776;28;20201;-57
2022/11/06 06:53:42;;;;;;;7.80;4.53;;;;;;;12.89;100.00;99073.72;5109892;28;20258;-61
2022/11/06 06:56:10;;;;;;;5.87;2.57;;;;;;;13.05;100.00;99068.13;5109804;28;20201;-57
2022/11/06 06:58:36;;;;;;;2.57;1.90;;;;;;;13.17;100.00;99069.66;5109696;28;20606;-57
2022/11/06 07:01:09;;;;;;;3.40;2.60;;;;;;;13.23;100.00;99070.91;5109973;28;20638;-61
2022/11/06 07:03:36;;;;;;;5.53;2.63;;;;;;;13.50;100.00;99078.09;5109732;28;20197;-58
2022/11/06 07:06:03;;;;;;;2.23;2.03;;;;;;;13.57;100.00;99076.63;5111358;28;20227;-61
2022/11/06 07:08:30;;;;;;;3.87;2.90;;;;;;;13.60;100.00;99068.66;5113857;28;20201;-61
2022/11/06 07:11:00;;;;;;;2.80;2.47;;;;;;;13.78;100.00;99079.13;5113756;28;20221;-61
2022/11/06 07:13:28;;;;;;;2.57;2.37;;;;;;;14.01;100.00;99077.94;5113804;28;20284;-57
2022/11/06 07:15:54;;;;;;;5.00;3.13;;;;;;;14.30;100.00;99076.34;5113901;28;20608;-61
2022/11/06 07:18:23;;;;;;;5.07;3.33;;;;;;;14.57;99.90;99084.22;5114019;28;20592;-57
2022/11/06 07:20:50;;;;;;;3.03;2.53;;;;;;;14.99;97.98;99089.06;5113931;28;20695;-60
2022/11/06 07:23:17;;;;;;;4.47;2.77;;;;;;;15.34;96.05;99087.63;5113708;28;20206;-57
2022/11/06 07:25:44;;;;;;;4.87;3.27;;;;;;;15.56;93.37;99091.56;5113365;28;20233;-57
2022/11/06 07:28:11;;;;;;;3.67;2.53;;;;;;;15.69;91.25;99097.25;5113459;28;20453;-57
2022/11/06 07:30:38;;;;;;;5.57;3.43;;;;;;;15.91;90.27;99100.38;5113289;28;20221;-57
2022/11/06 07:33:05;;;;;;;4.03;2.87;;;;;;;15.99;89.57;99106.44;5113581;28;20194;-61
2022/11/06 07:35:35;;;;;;;4.23;2.93;;;;;;;16.22;88.30;99109.44;5113806;27;20221;-61
2022/11/06 07:38:04;;;;;;;6.03;3.87;;;;;;;16.57;86.91;99112.16;5113496;28;20721;-57
2022/11/06 07:40:32;;;;;;;6.00;3.57;;;;;;;16.71;85.87;99117.59;5113727;28;20701;-59
2022/11/06 07:43:03;;;;;;;6.70;3.93;;;;;;;17.04;84.64;99117.06;5113606;27;20200;-57
2022/11/06 07:45:30;;;;;;;6.20;3.97;;;;;;;17.18;83.48;99117.31;5113239;28;20236;-61
2022/11/06 07:47:57;;;;;;;8.73;4.97;;;;;;;17.36;82.43;99117.25;5113165;28;20644;-57
2022/11/06 07:50:23;;;;;;;9.40;4.93;;;;;;;17.63;81.79;99120.63;5113121;28;20217;-58
2022/11/06 07:52:52;;;;;;;6.83;4.00;;;;;;;17.91;80.88;99117.84;5112703;28;20204;-57
2022/11/06 07:55:19;;;;;;;5.30;3.23;;;;;;;17.83;79.74;99122.03;5112915;28;20233;-57
2022/11/06 07:57:46;;;;;;;7.10;4.83;;;;;;;17.78;79.77;99124.28;5113251;28;20198;-61
2022/11/06 08:00:13;;;;;;;5.47;3.60;;;;;;;17.79;80.20;99131.06;5113143;28;20747;-62
2022/11/06 08:02:40;;;;;;;7.77;3.93;;;;;;;17.85;79.67;99130.44;5112702;28;20197;-58
2022/11/06 08:05:09;;;;;;;8.67;4.27;;;;;;;17.73;80.63;99130.84;5112118;28;20241;-58
2022/11/06 08:07:35;;;;;;;7.43;3.97;;;;;;;17.62;80.01;99129.34;5113205;28;20611;-61
2022/11/06 08:10:04;;;;;;;6.97;3.97;;;;;;;17.78;80.15;99139.78;5112659;28;20214;-57
2022/11/06 08:12:31;;;;;;;6.30;4.23;;;;;;;17.60;80.01;99132.09;5112570;28;20617;-60
2022/11/06 08:14:58;;;;;;;7.33;3.70;;;;;;;17.67;79.18;99127.09;5111844;28;20213;-61
2022/11/06 08:17:25;;;;;;;6.20;3.57;;;;;;;17.77;79.18;99122.63;5112196;28;20821;-60
2022/11/06 08:19:51;;;;;;;5.53;3.33;;;;;;;18.00;79.10;99133.22;5112802;28;20598;-57
2022/11/06 08:22:18;;;;;;;4.80;3.60;;;;;;;18.13;77.90;99132.00;5112634;28;20197;-58
2022/11/06 08:24:45;;;;;;;7.10;3.27;;;;;;;18.27;78.11;99124.41;5112482;28;20328;-57
2022/11/06 08:27:13;;;;;;;5.67;3.60;;;;;;;18.37;77.50;99128.63;5112125;28;20670;-58
2022/11/06 08:29:40;;;;;;;6.07;3.90;;;;;;;18.18;76.40;99127.97;5112218;28;20222;-58
2022/11/06 08:32:07;;;;;;;7.03;4.03;;;;;;;18.40;76.95;99133.50;5112352;28;20255;-62
2022/11/06 08:34:35;;;;;;;7.70;3.50;;;;;;;18.33;75.98;99128.16;5112715;28;20221;-61
2022/11/06 08:37:01;;;;;;;3.87;3.03;;;;;;;18.16;75.42;99129.88;5111983;28;20695;-61
2022/11/06 08:39:28;;;;;;;7.23;4.43;;;;;;;18.06;76.53;99129.19;5112269;27;20616;-58
2022/11/06 08:41:55;;;;;;;8.13;3.97;;;;;;;18.17;77.25;99123.72;5111918;28;20223;-61
2022/11/06 08:44:24;;;;;;;7.97;4.53;;;;;;;18.04;76.96;99131.97;5111772;28;20232;-58
2022/11/06 08:46:51;;;;;;;4.63;2.63;;;;;;;18.16;77.04;99116.16;5111974;28;20194;-61
2022/11/06 08:49:18;;;;;;;5.43;3.33;;;;;;;18.21;76.77;99131.97;5111929;27;20294;-58
2022/11/06 08:51:45;;;;;;;5.67;3.10;;;;;;;18.45;76.38;99136.41;5112018;28;20261;-61
2022/11/06 08:54:12;;;;;;;7.17;3.43;;;;;;;18.63;75.02;99142.25;5111553;28;20227;-61
2022/11/06 08:56:38;;;;;;;7.73;3.50;;;;;;;18.86;74.40;99145.03;5111789;28;20686;-61
2022/11/06 08:59:05;;;;;;;7.20;4.03;;;;;;;19.03;73.26;99140.66;5111680;28;20219;-58
2022/11/06 09:01:34;;;;;;;4.90;3.30;;;;;;;19.12;72.12;99134.47;5112111;28;20664;-58
2022/11/06 09:04:00;;;;;;;6.43;3.60;;;;;;;19.17;73.01;99142.59;5111431;28;20219;-58
2022/11/06 09:06:27;;;;;;;6.60;3.20;;;;;;;19.21;71.44;99149.03;5111660;28;20753;-62
2022/11/06 09:08:54;;;;;;;9.83;4.27;;;;;;;19.39;72.58;99150.63;5111432;28;20571;-62
2022/11/06 09:11:21;;;;;;;6.53;3.73;;;;;;;19.68;71.42;99148.28;5111516;28;20580;-58
2022/11/06 09:13:48;;;;;;;6.77;4.30;;;;;;;19.87;70.18;99141.91;5111238;28;20202;-62
2022/11/06 09:16:14;;;;;;;6.10;3.70;;;;;;;20.21;70.48;99145.13;5111469;27;20670;-59
2022/11/06 09:18:43;;;;;;;5.80;4.10;;;;;;;20.37;67.91;99145.03;5111055;28;20201;-62
2022/11/06 09:21:10;;;;;;;8.90;5.20;;;;;;;20.25;69.04;99146.44;5111394;28;20199;-58
2022/11/06 09:23:37;;;;;;;5.93;3.60;;;;;;;20.32;67.67;99147.34;5111401;28;20192;-62
2022/11/06 09:26:04;;;;;;;6.33;3.63;;;;;;;20.80;66.87;99145.41;5111011;28;20270;-63
2022/11/06 09:28:30;;;;;;;7.80;4.37;;;;;;;21.37;64.01;99147.47;5110603;28;20199;-63
2022/11/06 09:30:57;;;;;;;6.87;4.20;;;;;;;21.92;61.64;99130.56;5110820;28;20220;-59
2022/11/06 09:33:24;;;;;;;5.97;3.67;;;;;;;22.46;59.16;99125.97;5111227;28;20712;-63
2022/11/06 09:35:52;;;;;;;5.63;3.60;;;;;;;22.82;55.88;99131.06;5110856;28;20712;-63
2022/11/06 09:38:19;;;;;;;4.67;3.20;;;;;;;23.21;54.53;99125.38;5111018;28;20265;-59
2022/11/06 09:40:51;;;;;;;5.87;3.93;;;;;;;23.52;52.83;99121.50;5110750;28;20753;-63
2022/11/06 09:43:26;;;;;;;5.60;3.83;;;;;;;23.50;52.77;99123.50;5111085;28;20197;-59
2022/11/06 09:45:55;;;;;;;4.90;2.87;;;;;;;23.96;52.42;99122.91;5110598;28;20742;-63
2022/11/06 09:48:28;;;;;;;6.53;3.80;;;;;;;23.57;51.53;99126.94;5110508;28;20201;-58
2022/11/06 09:51:03;;;;;;;8.75;3.97;;;;;;;23.72;51.00;99122.41;5110821;28;20220;-58
2022/11/06 09:53:37;;;;;;;4.00;2.97;;;;;;;23.83;51.81;99117.66;5110558;28;20216;-58
2022/11/06 09:56:06;;;;;;;5.18;3.47;;;;;;;23.82;51.33;99111.59;5110615;28;20224;-63
2022/11/06 09:58:37;;;;;;;5.72;3.38;;;;;;;23.98;49.92;99115.69;5110457;28;20194;-63
2022/11/06 10:01:11;;;;;;;7.40;4.03;;;;;;;24.36;51.01;99117.78;5111106;28;20495;-63
2022/11/06 10:03:43;;;;;;;6.80;4.45;;;;;;;24.53;49.64;99113.00;5110747;28;20801;-63
2022/11/06 10:06:12;;;;;;;6.13;3.85;;;;;;;24.69;50.26;99117.00;5110343;28;20282;-59
2022/11/06 10:08:42;;;;;;;5.05;2.70;;;;;;;24.25;49.85;99115.72;5110127;28;20201;-63
2022/11/06 10:11:27;;;;;;;4.85;3.05;;;;;;;24.77;50.58;99119.41;5110278;28;20241;-59
2022/11/06 10:14:01;;;;;;;3.97;3.30;;;;;;;25.19;49.15;99117.38;5110351;28;20204;-63
2022/11/06 10:16:40;;;;;;;3.72;3.10;;;;;;;24.99;49.78;99120.03;5110497;28;20227;-59
2022/11/06 10:19:11;;;;;;;5.65;3.60;;;;;;;24.68;49.71;99110.19;5110417;28;20220;-59
2022/11/06 10:21:47;;;;;;;4.53;3.00;;;;;;;24.71;49.60;99115.00;5110457;28;20209;-59
2022/11/06 10:24:21;;;;;;;3.58;2.90;;;;;;;24.22;50.04;99113.53;5110192;28;20304;-58
2022/11/06 10:26:52;;;;;;;4.93;3.17;;;;;;;24.44;49.83;99115.00;5110221;28;20280;-58
2022/11/06 10:29:30;;;;;;;4.78;3.25;;;;;;;24.66;50.88;99117.41;5109884;28;20257;-63
2022/11/06 10:32:13;;;;;;;4.78;2.90;;;;;;;24.49;49.37;99111.78;5110134;28;20201;-59
2022/11/06 10:34:44;;;;;;;5.90;3.78;;;;;;;24.80;49.29;99114.59;5109954;28;20221;-63
2022/11/06 10:37:18;;;;;;;4.88;3.25;;;;;;;24.52;48.92;99104.34;5110089;28;20209;-63
2022/11/06 10:39:46;;;;;;;4.07;3.22;;;;;;;24.76;49.87;99102.13;5109874;28;20666;-59
2022/11/06 10:42:17;;;;;;;5.70;3.05;;;;;;;25.01;48.21;99100.47;5109721;28;20305;-64
2022/11/06 10:44:49;;;;;;;3.35;2.60;;;;;;;24.82;48.01;99101.31;5109647;28;20224;-63
2022/11/06 10:47:19;;;;;;;2.85;2.50;;;;;;;24.16;49.77;99102.84;5109877;28;20254;-59
2022/11/06 10:49:49;;;;;;;4.20;3.40;;;;;;;24.32;49.52;99090.44;5109781;28;20209;-59
2022/11/06 10:52:41;;;;;;;3.92;2.72;;;;;;;24.74;48.76;99094.47;5109856;28;20209;-63
2022/11/06 10:55:39;;;;;;;4.22;3.10;;;;;;;24.77;48.86;99101.13;5109592;28;20274;-58
2022/11/06 10:58:08;;;;;;;4.28;3.08;;;;;;;24.58;48.97;99094.88;5104056;28;20225;-63
2022/11/06 11:00:37;;;;;;;3.70;2.75;;;;;;;24.94;48.61;99099.69;5109815;28;20224;-63
2022/11/06 11:03:06;;;;;;;4.05;2.63;;;;;;;24.83;49.24;99100.31;5109806;28;20194;-59
2022/11/06 11:05:39;;;;;;;4.43;3.03;;;;;;;24.87;48.86;99093.69;5109560;28;20241;-59
2022/11/06 11:08:27;;;;;;;5.75;3.25;;;;;;;24.27;48.72;99098.88;5109957;28;20558;-59
2022/11/06 11:11:01;;;;;;;4.60;2.97;;;;;;;24.33;49.80;99092.84;5109412;28;20229;-59
2022/11/06 11:13:28;;;;;;;3.55;2.72;;;;;;;24.28;49.55;99089.22;5109639;28;20197;-59
2022/11/06 11:15:55;;;;;;;4.80;3.17;;;;;;;24.30;49.21;99087.22;5109526;28;20384;-63
2022/11/06 11:18:29;;;;;;;6.80;2.90;;;;;;;24.35;49.24;99090.03;5109792;28;20288;-63
2022/11/06 11:21:06;;;;;;;6.05;2.97;;;;;;;24.63;49.01;99097.69;5109483;28;20223;-58
2022/11/06 11:23:34;;;;;;;3.03;2.35;;;;;;;24.52;48.95;99099.13;5109671;28;20666;-59
2022/11/06 11:26:19;;;;;;;4.80;2.85;;;;;;;24.85;49.33;99095.69;5109444;28;20430;-58
2022/11/06 11:28:52;;;;;;;3.28;2.92;;;;;;;24.83;49.11;99089.84;5109414;28;20329;-63
2022/11/06 11:31:20;;;;;;;4.38;3.22;;;;;;;24.89;49.19;99102.09;5109345;28;20599;-63
2022/11/06 11:33:53;;;;;;;4.30;2.72;;;;;;;25.02;49.04;99096.88;5109796;28;20237;-63
2022/11/06 11:36:20;;;;;;;4.10;2.55;;;;;;;24.96;47.92;99097.69;5109677;28;20220;-64
2022/11/06 11:38:48;;;;;;;5.00;2.78;;;;;;;24.96;48.56;99102.91;5109534;28;20205;-59
2022/11/06 11:41:23;;;;;;;3.55;2.65;;;;;;;24.81;48.71;99095.28;5109454;28;20201;-59
2022/11/06 11:43:57;;;;;;;2.42;2.22;;;;;;;24.95;47.97;99106.53;5109268;28;20231;-59
2022/11/06 11:46:26;;;;;;;5.60;2.78;;;;;;;24.79;48.67;99106.97;5109422;28;20245;-64
2022/11/06 11:48:56;;;;;;;3.45;2.58;;;;;;;24.60;49.25;99096.28;5109329;28;20198;-58
2022/11/06 11:51:28;;;;;;;3.83;2.60;;;;;;;24.27;49.55;99109.31;5109569;28;20190;-63
2022/11/06 11:53:59;;;;;;;3.22;2.35;;;;;;;24.09;49.56;99107.28;5113167;27;20203;-62